sensor_id;sensor_type;location;lat;lon;timestamp;temperature;humidity
11736;DHT22;5924;51.398;7.088;2023-03-01T00:00:39;-4.00;99.90
11736;DHT22;5924;51.398;7.088;2023-03-01T00:03:05;-4.00;99.90
11736;DHT22;5924;51.398;7.088;2023-03-01T00:05:31;-4.10;99.90
11736;DHT22;5924;51.398;7.088;2023-03-01T00:07:58;-4.10;99.90
11736;DHT22;5924;51.398;7.088;2023-03-01T00:10:23;-0.90;99.90
11736;DHT22;5924;51.398;7.088;2023-03-01T00:12:49;-4.10;99.90
11736;DHT22;5924;51.398;7.088;2023-03-01T00:15:15;-4.20;99.90
11736;DHT22;5924;51.398;7.088;2023-03-01T00:17:40;-4.20;99.90
11736;DHT22;5924;51.398;7.088;2023-03-01T00:20:08;-4.20;99.90
11736;DHT22;5924;51.398;7.088;2023-03-01T00:22:36;-4.20;99.90
11736;DHT22;5924;51.398;7.088;2023-03-01T00:25:02;-2.60;99.90
11736;DHT22;5924;51.398;7.088;2023-03-01T00:27:28;-4.20;99.90
11736;DHT22;5924;51.398;7.088;2023-03-01T00:29:53;-4.30;99.90
11736;DHT22;5924;51.398;7.088;2023-03-01T00:32:19;-4.30;99.90
11736;DHT22;5924;51.398;7.088;2023-03-01T00:34:44;-4.30;99.90
11736;DHT22;5924;51.398;7.088;2023-03-01T00:37:23;-4.30;99.90
11736;DHT22;5924;51.398;7.088;2023-03-01T00:39:49;-4.40;99.90
11736;DHT22;5924;51.398;7.088;2023-03-01T00:42:15;-4.40;99.90
11736;DHT22;5924;51.398;7.088;2023-03-01T00:44:41;-4.40;99.90
11736;DHT22;5924;51.398;7.088;2023-03-01T00:47:07;-4.40;99.90
11736;DHT22;5924;51.398;7.088;2023-03-01T00:49:32;-4.40;99.90
11736;DHT22;5924;51.398;7.088;2023-03-01T00:51:58;-4.40;99.90
11736;DHT22;5924;51.398;7.088;2023-03-01T00:54:24;-4.50;99.90
11736;DHT22;5924;51.398;7.088;2023-03-01T00:56:50;-4.50;99.90
11736;DHT22;5924;51.398;7.088;2023-03-01T00:59:15;-4.50;99.90
11736;DHT22;5924;51.398;7.088;2023-03-01T01:01:41;-4.50;99.90
11736;DHT22;5924;51.398;7.088;2023-03-01T01:04:09;-4.50;99.90
11736;DHT22;5924;51.398;7.088;2023-03-01T01:06:39;-4.60;99.90
11736;DHT22;5924;51.398;7.088;2023-03-01T01:09:08;-4.60;99.90
11736;DHT22;5924;51.398;7.088;2023-03-01T01:11:35;-4.60;99.90
11736;DHT22;5924;51.398;7.088;2023-03-01T01:14:02;-4.70;99.90
11736;DHT22;5924;51.398;7.088;2023-03-01T01:16:29;-4.70;99.90
11736;DHT22;5924;51.398;7.088;2023-03-01T01:18:56;-4.70;99.90
11736;DHT22;5924;51.398;7.088;2023-03-01T01:21:23;-4.70;99.90
11736;DHT22;5924;51.398;7.088;2023-03-01T01:23:51;-4.70;99.90
11736;DHT22;5924;51.398;7.088;2023-03-01T01:26:26;-4.80;99.90
11736;DHT22;5924;51.398;7.088;2023-03-01T01:28:53;-4.80;99.90
11736;DHT22;5924;51.398;7.088;2023-03-01T01:31:19;-4.50;99.90
11736;DHT22;5924;51.398;7.088;2023-03-01T01:33:46;-4.80;99.90
11736;DHT22;5924;51.398;7.088;2023-03-01T01:36:12;-4.80;99.90
11736;DHT22;5924;51.398;7.088;2023-03-01T01:38:38;-4.80;99.90
11736;DHT22;5924;51.398;7.088;2023-03-01T01:41:05;-4.90;99.90
11736;DHT22;5924;51.398;7.088;2023-03-01T01:43:43;-4.90;99.90
11736;DHT22;5924;51.398;7.088;2023-03-01T01:46:31;-4.90;99.90
11736;DHT22;5924;51.398;7.088;2023-03-01T01:49:03;-5.00;99.90
11736;DHT22;5924;51.398;7.088;2023-03-01T01:51:33;-5.00;99.90
11736;DHT22;5924;51.398;7.088;2023-03-01T01:54:08;-5.00;99.90
11736;DHT22;5924;51.398;7.088;2023-03-01T01:56:37;-5.00;99.90
11736;DHT22;5924;51.398;7.088;2023-03-01T01:59:05;-5.00;99.90
11736;DHT22;5924;51.398;7.088;2023-03-01T02:01:31;-5.10;99.90
11736;DHT22;5924;51.398;7.088;2023-03-01T02:03:57;-5.10;99.90
11736;DHT22;5924;51.398;7.088;2023-03-01T02:07:07;-5.10;99.90
11736;DHT22;5924;51.398;7.088;2023-03-01T02:09:35;-5.10;99.90
11736;DHT22;5924;51.398;7.088;2023-03-01T02:12:02;-5.00;99.90
11736;DHT22;5924;51.398;7.088;2023-03-01T02:14:29;-5.20;99.90
11736;DHT22;5924;51.398;7.088;2023-03-01T02:16:55;-5.20;99.90
11736;DHT22;5924;51.398;7.088;2023-03-01T02:22:26;-5.20;99.90
11736;DHT22;5924;51.398;7.088;2023-03-01T02:27:29;-5.30;99.90
11736;DHT22;5924;51.398;7.088;2023-03-01T02:29:56;-5.30;99.90
11736;DHT22;5924;51.398;7.088;2023-03-01T02:32:22;-5.30;99.90
11736;DHT22;5924;51.398;7.088;2023-03-01T02:34:53;-5.30;99.90
11736;DHT22;5924;51.398;7.088;2023-03-01T02:37:19;-5.30;99.90
11736;DHT22;5924;51.398;7.088;2023-03-01T02:39:54;-3.50;99.90
11736;DHT22;5924;51.398;7.088;2023-03-01T02:42:26;-5.30;99.90
11736;DHT22;5924;51.398;7.088;2023-03-01T02:44:52;-5.30;99.90
11736;DHT22;5924;51.398;7.088;2023-03-01T02:47:19;-5.30;99.90
11736;DHT22;5924;51.398;7.088;2023-03-01T02:49:45;-5.40;99.90
11736;DHT22;5924;51.398;7.088;2023-03-01T02:55:11;-5.40;99.90
11736;DHT22;5924;51.398;7.088;2023-03-01T02:57:40;-7.80;99.90
11736;DHT22;5924;51.398;7.088;2023-03-01T03:00:10;-5.40;99.90
11736;DHT22;5924;51.398;7.088;2023-03-01T03:02:48;-5.40;99.90
11736;DHT22;5924;51.398;7.088;2023-03-01T03:05:26;-5.50;99.90
11736;DHT22;5924;51.398;7.088;2023-03-01T03:07:52;-5.50;99.90
11736;DHT22;5924;51.398;7.088;2023-03-01T03:10:30;-5.60;99.90
11736;DHT22;5924;51.398;7.088;2023-03-01T03:13:01;-5.60;99.90
11736;DHT22;5924;51.398;7.088;2023-03-01T03:15:28;-5.60;99.90
11736;DHT22;5924;51.398;7.088;2023-03-01T03:17:55;-5.60;99.90
11736;DHT22;5924;51.398;7.088;2023-03-01T03:20:24;-5.60;99.90
11736;DHT22;5924;51.398;7.088;2023-03-01T03:22:52;-5.70;99.90
11736;DHT22;5924;51.398;7.088;2023-03-01T03:25:19;-5.70;99.90
11736;DHT22;5924;51.398;7.088;2023-03-01T03:27:47;-5.70;99.90
11736;DHT22;5924;51.398;7.088;2023-03-01T03:30:16;-5.70;99.90
11736;DHT22;5924;51.398;7.088;2023-03-01T03:32:43;-6.30;99.90
11736;DHT22;5924;51.398;7.088;2023-03-01T03:35:20;-5.70;99.90
11736;DHT22;5924;51.398;7.088;2023-03-01T03:37:46;-5.70;99.90
11736;DHT22;5924;51.398;7.088;2023-03-01T03:40:34;-5.80;99.90
11736;DHT22;5924;51.398;7.088;2023-03-01T03:43:02;-5.80;99.90
11736;DHT22;5924;51.398;7.088;2023-03-01T03:45:28;-5.80;99.90
11736;DHT22;5924;51.398;7.088;2023-03-01T03:47:53;-5.80;99.90
11736;DHT22;5924;51.398;7.088;2023-03-01T03:50:19;-5.80;99.90
11736;DHT22;5924;51.398;7.088;2023-03-01T03:52:45;-5.90;99.90
11736;DHT22;5924;51.398;7.088;2023-03-01T03:55:12;-5.90;99.90
11736;DHT22;5924;51.398;7.088;2023-03-01T03:57:38;-5.90;99.90
11736;DHT22;5924;51.398;7.088;2023-03-01T04:00:06;-5.90;99.90
11736;DHT22;5924;51.398;7.088;2023-03-01T04:02:41;-5.90;99.90
11736;DHT22;5924;51.398;7.088;2023-03-01T04:05:08;-5.90;99.90
11736;DHT22;5924;51.398;7.088;2023-03-01T04:07:38;-5.90;99.90
11736;DHT22;5924;51.398;7.088;2023-03-01T04:10:05;-5.90;99.90
11736;DHT22;5924;51.398;7.088;2023-03-01T04:12:33;-5.90;99.90
11736;DHT22;5924;51.398;7.088;2023-03-01T04:15:00;-6.00;99.90
11736;DHT22;5924;51.398;7.088;2023-03-01T04:17:26;-6.00;99.90
11736;DHT22;5924;51.398;7.088;2023-03-01T04:19:51;-6.00;99.90
11736;DHT22;5924;51.398;7.088;2023-03-01T04:22:17;-6.00;99.90
11736;DHT22;5924;51.398;7.088;2023-03-01T04:24:44;-6.00;99.90
11736;DHT22;5924;51.398;7.088;2023-03-01T04:27:10;-6.00;99.90
11736;DHT22;5924;51.398;7.088;2023-03-01T04:29:36;-6.00;99.90
11736;DHT22;5924;51.398;7.088;2023-03-01T04:32:02;-6.00;99.90
11736;DHT22;5924;51.398;7.088;2023-03-01T04:34:29;-6.00;99.90
11736;DHT22;5924;51.398;7.088;2023-03-01T04:36:54;-6.00;99.90
11736;DHT22;5924;51.398;7.088;2023-03-01T04:39:20;-6.00;99.90
11736;DHT22;5924;51.398;7.088;2023-03-01T04:41:46;-6.10;99.90
11736;DHT22;5924;51.398;7.088;2023-03-01T04:44:12;-6.10;99.90
11736;DHT22;5924;51.398;7.088;2023-03-01T04:46:38;-6.10;99.90
11736;DHT22;5924;51.398;7.088;2023-03-01T04:49:04;-6.10;99.90
11736;DHT22;5924;51.398;7.088;2023-03-01T04:51:30;-6.10;99.90
11736;DHT22;5924;51.398;7.088;2023-03-01T04:53:57;-6.10;99.90
11736;DHT22;5924;51.398;7.088;2023-03-01T04:56:23;-6.20;99.90
11736;DHT22;5924;51.398;7.088;2023-03-01T04:58:49;-6.20;99.90
11736;DHT22;5924;51.398;7.088;2023-03-01T05:01:19;-6.20;99.90
11736;DHT22;5924;51.398;7.088;2023-03-01T05:03:50;-6.20;99.90
11736;DHT22;5924;51.398;7.088;2023-03-01T05:06:20;-6.30;99.90
11736;DHT22;5924;51.398;7.088;2023-03-01T05:08:45;-6.30;99.90
11736;DHT22;5924;51.398;7.088;2023-03-01T05:11:11;-6.30;99.90
11736;DHT22;5924;51.398;7.088;2023-03-01T05:13:38;-6.30;99.90
11736;DHT22;5924;51.398;7.088;2023-03-01T05:16:05;-6.30;99.90
11736;DHT22;5924;51.398;7.088;2023-03-01T05:18:33;-6.30;99.90
11736;DHT22;5924;51.398;7.088;2023-03-01T05:21:11;-6.30;99.90
11736;DHT22;5924;51.398;7.088;2023-03-01T05:23:37;-6.30;99.90
11736;DHT22;5924;51.398;7.088;2023-03-01T05:26:05;-6.30;99.90
11736;DHT22;5924;51.398;7.088;2023-03-01T05:28:31;-6.40;99.90
11736;DHT22;5924;51.398;7.088;2023-03-01T05:30:57;-6.30;99.90
11736;DHT22;5924;51.398;7.088;2023-03-01T05:33:24;-6.30;99.90
11736;DHT22;5924;51.398;7.088;2023-03-01T05:35:51;-6.40;99.90
11736;DHT22;5924;51.398;7.088;2023-03-01T05:38:20;-6.30;99.90
11736;DHT22;5924;51.398;7.088;2023-03-01T05:40:47;-5.60;99.90
11736;DHT22;5924;51.398;7.088;2023-03-01T05:43:14;-6.30;99.90
11736;DHT22;5924;51.398;7.088;2023-03-01T05:45:41;-6.30;99.90
11736;DHT22;5924;51.398;7.088;2023-03-01T05:48:08;-6.20;99.90
11736;DHT22;5924;51.398;7.088;2023-03-01T05:50:37;-6.20;99.90
11736;DHT22;5924;51.398;7.088;2023-03-01T05:55:36;-6.30;99.90
11736;DHT22;5924;51.398;7.088;2023-03-01T05:58:04;-6.30;99.90
11736;DHT22;5924;51.398;7.088;2023-03-01T06:00:31;-6.30;99.90
11736;DHT22;5924;51.398;7.088;2023-03-01T06:02:57;-6.30;99.90
11736;DHT22;5924;51.398;7.088;2023-03-01T06:05:24;-6.40;99.90
11736;DHT22;5924;51.398;7.088;2023-03-01T06:07:51;-6.40;99.90
11736;DHT22;5924;51.398;7.088;2023-03-01T06:10:18;-6.40;99.90
11736;DHT22;5924;51.398;7.088;2023-03-01T06:12:45;-6.40;99.90
11736;DHT22;5924;51.398;7.088;2023-03-01T06:15:12;-6.40;99.90
11736;DHT22;5924;51.398;7.088;2023-03-01T06:17:41;-6.40;99.90
11736;DHT22;5924;51.398;7.088;2023-03-01T06:20:10;-6.40;99.90
11736;DHT22;5924;51.398;7.088;2023-03-01T06:22:35;-6.30;99.90
11736;DHT22;5924;51.398;7.088;2023-03-01T06:25:01;-6.30;99.90
11736;DHT22;5924;51.398;7.088;2023-03-01T06:27:27;-6.30;99.90
11736;DHT22;5924;51.398;7.088;2023-03-01T06:29:53;-6.30;99.90
11736;DHT22;5924;51.398;7.088;2023-03-01T06:32:19;-6.30;99.90
11736;DHT22;5924;51.398;7.088;2023-03-01T06:34:44;-6.10;99.90
11736;DHT22;5924;51.398;7.088;2023-03-01T06:37:10;-6.20;99.90
11736;DHT22;5924;51.398;7.088;2023-03-01T06:39:36;-6.10;99.90
11736;DHT22;5924;51.398;7.088;2023-03-01T06:42:02;-6.00;99.90
11736;DHT22;5924;51.398;7.088;2023-03-01T06:44:28;-6.00;99.90
11736;DHT22;5924;51.398;7.088;2023-03-01T06:46:54;-5.80;99.90
11736;DHT22;5924;51.398;7.088;2023-03-01T06:49:19;-5.70;99.90
11736;DHT22;5924;51.398;7.088;2023-03-01T06:51:46;-5.60;99.90
11736;DHT22;5924;51.398;7.088;2023-03-01T06:54:12;-5.60;99.90
11736;DHT22;5924;51.398;7.088;2023-03-01T06:56:38;-5.50;99.90
11736;DHT22;5924;51.398;7.088;2023-03-01T06:59:04;-5.40;99.90
11736;DHT22;5924;51.398;7.088;2023-03-01T07:01:30;-5.40;99.90
11736;DHT22;5924;51.398;7.088;2023-03-01T07:03:56;-5.30;99.90
11736;DHT22;5924;51.398;7.088;2023-03-01T07:06:22;-2.70;99.90
11736;DHT22;5924;51.398;7.088;2023-03-01T07:08:48;-5.10;99.90
11736;DHT22;5924;51.398;7.088;2023-03-01T07:11:14;-5.10;99.90
11736;DHT22;5924;51.398;7.088;2023-03-01T07:13:40;-5.00;99.90
11736;DHT22;5924;51.398;7.088;2023-03-01T07:16:06;-4.90;99.90
11736;DHT22;5924;51.398;7.088;2023-03-01T07:18:32;-4.80;99.90
11736;DHT22;5924;51.398;7.088;2023-03-01T07:20:57;-4.80;99.90
11736;DHT22;5924;51.398;7.088;2023-03-01T07:23:23;-4.80;99.90
11736;DHT22;5924;51.398;7.088;2023-03-01T07:25:53;-4.70;99.90
11736;DHT22;5924;51.398;7.088;2023-03-01T07:28:19;-4.60;99.90
11736;DHT22;5924;51.398;7.088;2023-03-01T07:30:44;-4.50;99.90
11736;DHT22;5924;51.398;7.088;2023-03-01T07:33:10;-4.50;99.90
11736;DHT22;5924;51.398;7.088;2023-03-01T07:35:36;-4.40;99.90
11736;DHT22;5924;51.398;7.088;2023-03-01T07:38:01;-4.40;99.90
11736;DHT22;5924;51.398;7.088;2023-03-01T07:40:27;-4.30;99.90
11736;DHT22;5924;51.398;7.088;2023-03-01T07:42:58;-4.20;99.90
11736;DHT22;5924;51.398;7.088;2023-03-01T07:45:25;-4.20;99.90
11736;DHT22;5924;51.398;7.088;2023-03-01T07:47:52;-4.10;99.90
11736;DHT22;5924;51.398;7.088;2023-03-01T07:50:19;-4.00;99.90
11736;DHT22;5924;51.398;7.088;2023-03-01T07:52:46;-4.00;99.90
11736;DHT22;5924;51.398;7.088;2023-03-01T07:55:12;-3.90;99.90
11736;DHT22;5924;51.398;7.088;2023-03-01T07:57:38;-3.80;99.90
11736;DHT22;5924;51.398;7.088;2023-03-01T08:00:06;-3.40;99.90
11736;DHT22;5924;51.398;7.088;2023-03-01T08:02:32;-3.60;99.90
11736;DHT22;5924;51.398;7.088;2023-03-01T08:04:58;-3.50;99.90
11736;DHT22;5924;51.398;7.088;2023-03-01T08:07:24;-3.50;99.90
11736;DHT22;5924;51.398;7.088;2023-03-01T08:09:49;-3.40;99.90
11736;DHT22;5924;51.398;7.088;2023-03-01T08:12:15;-3.30;99.90
11736;DHT22;5924;51.398;7.088;2023-03-01T08:14:42;-3.10;99.90
11736;DHT22;5924;51.398;7.088;2023-03-01T08:17:08;-3.00;99.90
11736;DHT22;5924;51.398;7.088;2023-03-01T08:19:34;-2.90;99.90
11736;DHT22;5924;51.398;7.088;2023-03-01T08:22:02;-2.80;99.90
11736;DHT22;5924;51.398;7.088;2023-03-01T08:24:28;-2.70;99.90
11736;DHT22;5924;51.398;7.088;2023-03-01T08:26:54;-2.60;99.90
11736;DHT22;5924;51.398;7.088;2023-03-01T08:29:20;-2.50;99.90
11736;DHT22;5924;51.398;7.088;2023-03-01T08:31:46;-2.40;99.90
11736;DHT22;5924;51.398;7.088;2023-03-01T08:34:14;-2.20;99.90
11736;DHT22;5924;51.398;7.088;2023-03-01T08:36:45;-2.10;99.90
11736;DHT22;5924;51.398;7.088;2023-03-01T08:39:13;-2.00;99.90
11736;DHT22;5924;51.398;7.088;2023-03-01T08:41:39;-1.90;99.90
11736;DHT22;5924;51.398;7.088;2023-03-01T08:44:06;-1.80;99.90
11736;DHT22;5924;51.398;7.088;2023-03-01T08:46:35;-1.60;99.90
11736;DHT22;5924;51.398;7.088;2023-03-01T08:49:04;-1.50;99.90
11736;DHT22;5924;51.398;7.088;2023-03-01T08:51:30;-1.30;99.90
11736;DHT22;5924;51.398;7.088;2023-03-01T08:54:02;-1.10;99.90
11736;DHT22;5924;51.398;7.088;2023-03-01T08:56:28;-0.20;99.90
11736;DHT22;5924;51.398;7.088;2023-03-01T08:58:54;-0.80;99.90
11736;DHT22;5924;51.398;7.088;2023-03-01T09:01:20;2.20;99.90
11736;DHT22;5924;51.398;7.088;2023-03-01T09:03:46;-0.50;99.90
11736;DHT22;5924;51.398;7.088;2023-03-01T09:06:12;-0.40;99.90
11736;DHT22;5924;51.398;7.088;2023-03-01T09:08:41;-0.30;99.90
11736;DHT22;5924;51.398;7.088;2023-03-01T09:11:10;-0.20;99.90
11736;DHT22;5924;51.398;7.088;2023-03-01T09:13:36;0.00;99.90
11736;DHT22;5924;51.398;7.088;2023-03-01T09:16:04;0.10;99.90
11736;DHT22;5924;51.398;7.088;2023-03-01T09:18:31;0.30;99.90
11736;DHT22;5924;51.398;7.088;2023-03-01T09:21:09;0.50;99.90
11736;DHT22;5924;51.398;7.088;2023-03-01T09:23:40;0.60;99.90
11736;DHT22;5924;51.398;7.088;2023-03-01T09:26:08;0.80;99.90
11736;DHT22;5924;51.398;7.088;2023-03-01T09:28:38;0.90;99.90
11736;DHT22;5924;51.398;7.088;2023-03-01T09:31:05;1.10;99.90
11736;DHT22;5924;51.398;7.088;2023-03-01T09:33:32;1.20;99.90
11736;DHT22;5924;51.398;7.088;2023-03-01T09:36:00;1.40;99.90
11736;DHT22;5924;51.398;7.088;2023-03-01T09:38:26;1.80;99.90
11736;DHT22;5924;51.398;7.088;2023-03-01T09:40:52;1.70;99.90
11736;DHT22;5924;51.398;7.088;2023-03-01T09:45:51;2.00;99.90
11736;DHT22;5924;51.398;7.088;2023-03-01T09:48:21;2.00;99.90
11736;DHT22;5924;51.398;7.088;2023-03-01T09:50:49;2.10;99.90
11736;DHT22;5924;51.398;7.088;2023-03-01T09:53:23;2.20;99.90
11736;DHT22;5924;51.398;7.088;2023-03-01T09:56:02;2.30;99.90
11736;DHT22;5924;51.398;7.088;2023-03-01T10:04:44;2.60;99.90
11736;DHT22;5924;51.398;7.088;2023-03-01T10:09:52;2.80;99.90
11736;DHT22;5924;51.398;7.088;2023-03-01T10:12:21;2.90;99.90
11736;DHT22;5924;51.398;7.088;2023-03-01T10:22:50;3.30;99.90
11736;DHT22;5924;51.398;7.088;2023-03-01T10:30:47;3.60;99.90
11736;DHT22;5924;51.398;7.088;2023-03-01T10:35:44;3.80;99.90
11736;DHT22;5924;51.398;7.088;2023-03-01T10:38:14;3.90;99.90
11736;DHT22;5924;51.398;7.088;2023-03-01T10:40:55;4.00;99.90
11736;DHT22;5924;51.398;7.088;2023-03-01T10:43:40;4.10;99.90
11736;DHT22;5924;51.398;7.088;2023-03-01T10:49:19;4.10;99.90
11736;DHT22;5924;51.398;7.088;2023-03-01T10:51:48;4.10;99.90
11736;DHT22;5924;51.398;7.088;2023-03-01T10:54:40;4.10;99.90
11736;DHT22;5924;51.398;7.088;2023-03-01T10:57:42;4.10;99.90
11736;DHT22;5924;51.398;7.088;2023-03-01T11:00:21;4.80;99.90
11736;DHT22;5924;51.398;7.088;2023-03-01T11:03:24;4.30;99.90
11736;DHT22;5924;51.398;7.088;2023-03-01T11:06:20;4.50;99.90
11736;DHT22;5924;51.398;7.088;2023-03-01T11:08:50;4.60;99.90
11736;DHT22;5924;51.398;7.088;2023-03-01T11:11:32;4.70;99.90
11736;DHT22;5924;51.398;7.088;2023-03-01T11:14:30;4.90;99.90
11736;DHT22;5924;51.398;7.088;2023-03-01T11:17:03;4.80;99.90
11736;DHT22;5924;51.398;7.088;2023-03-01T11:19:30;4.80;99.90
11736;DHT22;5924;51.398;7.088;2023-03-01T11:24:51;4.80;99.90
11736;DHT22;5924;51.398;7.088;2023-03-01T11:27:24;4.90;99.90
11736;DHT22;5924;51.398;7.088;2023-03-01T11:30:24;5.10;99.90
11736;DHT22;5924;51.398;7.088;2023-03-01T11:36:01;5.20;99.90
11736;DHT22;5924;51.398;7.088;2023-03-01T11:38:29;5.20;99.90
11736;DHT22;5924;51.398;7.088;2023-03-01T11:41:05;5.10;99.90
11736;DHT22;5924;51.398;7.088;2023-03-01T11:43:44;5.20;99.90
11736;DHT22;5924;51.398;7.088;2023-03-01T12:05:59;5.60;99.90
11736;DHT22;5924;51.398;7.088;2023-03-01T12:08:35;5.50;99.90
11736;DHT22;5924;51.398;7.088;2023-03-01T12:16:23;5.70;99.90
11736;DHT22;5924;51.398;7.088;2023-03-01T12:22:51;5.90;99.90
11736;DHT22;5924;51.398;7.088;2023-03-01T12:30:25;6.10;99.90
11736;DHT22;5924;51.398;7.088;2023-03-01T12:38:50;6.30;99.90
11736;DHT22;5924;51.398;7.088;2023-03-01T12:41:51;6.30;99.90
11736;DHT22;5924;51.398;7.088;2023-03-01T12:50:23;7.80;99.90
11736;DHT22;5924;51.398;7.088;2023-03-01T12:52:55;9.40;99.90
11736;DHT22;5924;51.398;7.088;2023-03-01T12:55:39;10.50;98.10
11736;DHT22;5924;51.398;7.088;2023-03-01T13:15:25;13.20;72.90
11736;DHT22;5924;51.398;7.088;2023-03-01T13:17:57;13.60;73.00
11736;DHT22;5924;51.398;7.088;2023-03-01T13:20:30;14.00;73.10
11736;DHT22;5924;51.398;7.088;2023-03-01T13:31:04;11.30;71.90
11736;DHT22;5924;51.398;7.088;2023-03-01T13:35:59;11.70;74.60
11736;DHT22;5924;51.398;7.088;2023-03-01T13:39:03;9.80;77.50
11736;DHT22;5924;51.398;7.088;2023-03-01T13:44:33;8.90;81.10
11736;DHT22;5924;51.398;7.088;2023-03-01T13:49:43;8.10;81.90
11736;DHT22;5924;51.398;7.088;2023-03-01T13:54:59;7.90;81.40
11736;DHT22;5924;51.398;7.088;2023-03-01T13:57:33;7.70;82.50
11736;DHT22;5924;51.398;7.088;2023-03-01T13:59:59;7.80;82.50
11736;DHT22;5924;51.398;7.088;2023-03-01T14:02:25;9.90;83.10
11736;DHT22;5924;51.398;7.088;2023-03-01T14:04:58;8.60;79.70
11736;DHT22;5924;51.398;7.088;2023-03-01T14:07:26;9.20;80.20
11736;DHT22;5924;51.398;7.088;2023-03-01T14:10:00;9.50;78.10
11736;DHT22;5924;51.398;7.088;2023-03-01T14:12:47;9.80;78.80
11736;DHT22;5924;51.398;7.088;2023-03-01T14:20:27;8.80;77.50
11736;DHT22;5924;51.398;7.088;2023-03-01T14:22:55;8.50;78.20
11736;DHT22;5924;51.398;7.088;2023-03-01T14:25:28;8.30;79.10
11736;DHT22;5924;51.398;7.088;2023-03-01T14:28:28;8.20;80.60
11736;DHT22;5924;51.398;7.088;2023-03-01T14:30:57;8.10;82.50
11736;DHT22;5924;51.398;7.088;2023-03-01T14:33:36;8.00;81.60
11736;DHT22;5924;51.398;7.088;2023-03-01T14:36:03;8.00;82.40
11736;DHT22;5924;51.398;7.088;2023-03-01T14:38:36;7.60;82.10
11736;DHT22;5924;51.398;7.088;2023-03-01T14:41:15;7.40;82.30
11736;DHT22;5924;51.398;7.088;2023-03-01T14:43:46;7.40;83.50
11736;DHT22;5924;51.398;7.088;2023-03-01T14:46:32;7.30;83.00
11736;DHT22;5924;51.398;7.088;2023-03-01T14:49:07;7.20;83.70
11736;DHT22;5924;51.398;7.088;2023-03-01T14:51:37;7.10;84.50
11736;DHT22;5924;51.398;7.088;2023-03-01T14:54:10;7.10;85.40
11736;DHT22;5924;51.398;7.088;2023-03-01T14:56:45;7.10;85.50
11736;DHT22;5924;51.398;7.088;2023-03-01T14:59:11;7.00;84.90
11736;DHT22;5924;51.398;7.088;2023-03-01T15:01:37;6.90;84.90
11736;DHT22;5924;51.398;7.088;2023-03-01T15:04:05;6.80;84.20
11736;DHT22;5924;51.398;7.088;2023-03-01T15:06:31;6.80;83.50
11736;DHT22;5924;51.398;7.088;2023-03-01T15:08:57;6.80;82.10
11736;DHT22;5924;51.398;7.088;2023-03-01T15:11:27;6.80;82.10
11736;DHT22;5924;51.398;7.088;2023-03-01T15:13:54;6.80;82.30
11736;DHT22;5924;51.398;7.088;2023-03-01T15:16:24;6.80;82.40
11736;DHT22;5924;51.398;7.088;2023-03-01T15:21:31;6.80;83.50
11736;DHT22;5924;51.398;7.088;2023-03-01T15:26:59;6.70;84.80
11736;DHT22;5924;51.398;7.088;2023-03-01T15:29:33;6.60;83.80
11736;DHT22;5924;51.398;7.088;2023-03-01T15:32:24;6.60;83.80
11736;DHT22;5924;51.398;7.088;2023-03-01T15:34:50;6.50;84.50
11736;DHT22;5924;51.398;7.088;2023-03-01T15:37:40;6.50;85.40
11736;DHT22;5924;51.398;7.088;2023-03-01T15:40:25;6.40;85.50
11736;DHT22;5924;51.398;7.088;2023-03-01T15:43:01;6.40;87.50
11736;DHT22;5924;51.398;7.088;2023-03-01T15:45:29;6.40;86.60
11736;DHT22;5924;51.398;7.088;2023-03-01T15:47:57;6.30;86.80
11736;DHT22;5924;51.398;7.088;2023-03-01T15:50:27;6.30;86.80
11736;DHT22;5924;51.398;7.088;2023-03-01T15:52:54;6.20;87.90
11736;DHT22;5924;51.398;7.088;2023-03-01T15:55:24;6.20;87.50
11736;DHT22;5924;51.398;7.088;2023-03-01T15:58:08;6.10;87.70
11736;DHT22;5924;51.398;7.088;2023-03-01T16:00:35;6.10;88.20
11736;DHT22;5924;51.398;7.088;2023-03-01T16:03:01;6.00;86.80
11736;DHT22;5924;51.398;7.088;2023-03-01T16:05:32;5.90;87.30
11736;DHT22;5924;51.398;7.088;2023-03-01T16:07:58;5.80;88.10
11736;DHT22;5924;51.398;7.088;2023-03-01T16:10:24;5.80;88.00
11736;DHT22;5924;51.398;7.088;2023-03-01T16:12:51;5.70;88.10
11736;DHT22;5924;51.398;7.088;2023-03-01T16:17:47;5.60;89.50
11736;DHT22;5924;51.398;7.088;2023-03-01T16:20:13;5.50;88.90
11736;DHT22;5924;51.398;7.088;2023-03-01T16:22:41;5.50;89.60
11736;DHT22;5924;51.398;7.088;2023-03-01T16:25:13;5.50;89.00
11736;DHT22;5924;51.398;7.088;2023-03-01T16:27:43;5.40;88.70
11736;DHT22;5924;51.398;7.088;2023-03-01T16:30:10;5.40;88.90
11736;DHT22;5924;51.398;7.088;2023-03-01T16:32:43;5.30;88.70
11736;DHT22;5924;51.398;7.088;2023-03-01T16:35:10;5.20;89.40
11736;DHT22;5924;51.398;7.088;2023-03-01T16:37:37;5.30;90.00
11736;DHT22;5924;51.398;7.088;2023-03-01T16:40:06;5.10;90.30
11736;DHT22;5924;51.398;7.088;2023-03-01T16:42:36;5.10;90.40
11736;DHT22;5924;51.398;7.088;2023-03-01T16:45:02;5.00;90.50
11736;DHT22;5924;51.398;7.088;2023-03-01T16:47:29;4.90;90.70
11736;DHT22;5924;51.398;7.088;2023-03-01T16:49:54;4.80;90.80
11736;DHT22;5924;51.398;7.088;2023-03-01T16:52:21;4.70;91.20
11736;DHT22;5924;51.398;7.088;2023-03-01T16:54:47;4.60;91.20
11736;DHT22;5924;51.398;7.088;2023-03-01T16:57:13;4.40;91.20
11736;DHT22;5924;51.398;7.088;2023-03-01T16:59:42;4.30;91.60
11736;DHT22;5924;51.398;7.088;2023-03-01T17:02:12;4.30;91.70
11736;DHT22;5924;51.398;7.088;2023-03-01T17:04:39;4.10;91.90
11736;DHT22;5924;51.398;7.088;2023-03-01T17:07:05;4.00;92.10
11736;DHT22;5924;51.398;7.088;2023-03-01T17:09:35;3.90;92.50
11736;DHT22;5924;51.398;7.088;2023-03-01T17:12:02;3.70;93.00
11736;DHT22;5924;51.398;7.088;2023-03-01T17:14:28;3.50;93.30
11736;DHT22;5924;51.398;7.088;2023-03-01T17:16:54;3.40;93.50
11736;DHT22;5924;51.398;7.088;2023-03-01T17:19:20;3.40;93.50
11736;DHT22;5924;51.398;7.088;2023-03-01T17:21:46;3.30;93.90
11736;DHT22;5924;51.398;7.088;2023-03-01T17:24:12;3.30;93.90
11736;DHT22;5924;51.398;7.088;2023-03-01T17:26:38;3.30;94.10
11736;DHT22;5924;51.398;7.088;2023-03-01T17:29:04;3.20;94.40
11736;DHT22;5924;51.398;7.088;2023-03-01T17:31:31;3.00;94.60
11736;DHT22;5924;51.398;7.088;2023-03-01T17:33:59;3.00;94.90
11736;DHT22;5924;51.398;7.088;2023-03-01T17:36:26;2.90;95.10
11736;DHT22;5924;51.398;7.088;2023-03-01T17:38:52;2.70;95.50
11736;DHT22;5924;51.398;7.088;2023-03-01T17:41:17;2.60;95.90
11736;DHT22;5924;51.398;7.088;2023-03-01T17:43:44;2.70;96.30
11736;DHT22;5924;51.398;7.088;2023-03-01T17:46:10;2.40;96.40
11736;DHT22;5924;51.398;7.088;2023-03-01T17:48:37;0.80;96.00
11736;DHT22;5924;51.398;7.088;2023-03-01T17:51:07;2.40;97.00
11736;DHT22;5924;51.398;7.088;2023-03-01T17:53:34;2.20;97.20
11736;DHT22;5924;51.398;7.088;2023-03-01T17:56:02;2.30;97.80
11736;DHT22;5924;51.398;7.088;2023-03-01T17:58:28;0.00;97.10
11736;DHT22;5924;51.398;7.088;2023-03-01T18:00:53;2.20;98.20
11736;DHT22;5924;51.398;7.088;2023-03-01T18:03:19;2.10;98.60
11736;DHT22;5924;51.398;7.088;2023-03-01T18:05:46;2.00;99.10
11736;DHT22;5924;51.398;7.088;2023-03-01T18:08:12;1.90;99.90
11736;DHT22;5924;51.398;7.088;2023-03-01T18:10:38;1.80;99.90
11736;DHT22;5924;51.398;7.088;2023-03-01T18:13:04;1.70;99.90
11736;DHT22;5924;51.398;7.088;2023-03-01T18:15:31;1.50;99.90
11736;DHT22;5924;51.398;7.088;2023-03-01T18:17:57;1.50;99.90
11736;DHT22;5924;51.398;7.088;2023-03-01T18:20:23;1.50;99.90
11736;DHT22;5924;51.398;7.088;2023-03-01T18:22:49;1.60;99.90
11736;DHT22;5924;51.398;7.088;2023-03-01T18:25:17;1.60;99.90
11736;DHT22;5924;51.398;7.088;2023-03-01T18:27:43;1.60;99.90